Time;durP1;ratioP1;P1;durP2;ratioP2;P2;SDS_P1;SDS_P2;PMS_P1;PMS_P2;Temp;Humidity;BMP_temperature;BMP_pressure;BME280_temperature;BME280_humidity;BME280_pressure;Samples;Min_cycle;Max_cycle;Signal;HPM_P1;HPM_P2
2022/07/04 00:00:36;;;;;;;66.57;3.17;;;19.80;9.40;;;;;;5089433;28;20255;-86
2022/07/04 00:03:02;;;;;;;66.53;3.67;;;19.70;11.50;;;;;;5106098;28;20799;-86
2022/07/04 00:05:28;;;;;;;66.53;2.90;;;19.70;12.40;;;;;;5106967;28;20166;-86
2022/07/04 00:07:54;;;;;;;66.50;3.27;;;19.70;13.30;;;;;;5107571;28;20202;-85
2022/07/04 00:10:23;;;;;;;66.80;3.77;;;19.60;14.80;;;;;;5106518;28;20178;-86
2022/07/04 00:12:49;;;;;;;66.33;3.63;;;19.50;15.90;;;;;;5106235;28;20187;-86
2022/07/04 00:15:15;;;;;;;66.73;3.97;;;19.60;16.10;;;;;;5088972;28;20478;-86
2022/07/04 00:17:41;;;;;;;66.47;3.30;;;19.50;16.90;;;;;;5106776;28;20448;-86
2022/07/04 00:20:08;;;;;;;70.40;3.73;;;19.50;17.10;;;;;;5107732;28;20404;-85
2022/07/04 00:22:34;;;;;;;66.57;3.80;;;19.40;18.70;;;;;;5089314;28;20435;-86
2022/07/04 00:25:00;;;;;;;69.40;3.40;;;19.40;18.50;;;;;;5107257;28;20498;-85
2022/07/04 00:27:26;;;;;;;66.87;4.30;;;19.40;17.70;;;;;;5088106;28;20239;-85
2022/07/04 00:29:51;;;;;;;71.20;3.77;;;19.40;17.70;;;;;;5089739;28;20188;-85
2022/07/04 00:32:17;;;;;;;66.40;3.30;;;19.40;17.20;;;;;;5107510;28;20168;-85
2022/07/04 00:34:43;;;;;;;67.57;3.93;;;19.30;17.40;;;;;;5106817;28;20216;-85
2022/07/04 00:37:09;;;;;;;67.10;4.03;;;19.40;17.10;;;;;;5106822;28;20427;-86
2022/07/04 00:39:35;;;;;;;66.37;3.87;;;19.40;17.10;;;;;;5106554;28;20181;-86
2022/07/04 00:42:01;;;;;;;68.00;5.47;;;19.30;17.50;;;;;;5107068;28;20167;-85
2022/07/04 00:44:26;;;;;;;71.00;5.03;;;19.20;19.10;;;;;;5106664;28;20466;-85
2022/07/04 00:46:52;;;;;;;67.60;5.80;;;19.20;19.20;;;;;;5088738;28;20991;-86
2022/07/04 00:49:18;;;;;;;66.37;4.77;;;19.20;20.00;;;;;;5106153;28;20186;-86
2022/07/04 00:51:45;;;;;;;67.47;6.67;;;19.10;20.50;;;;;;5089104;28;20169;-86
2022/07/04 00:54:13;;;;;;;67.93;6.40;;;19.00;21.90;;;;;;5106300;28;20921;-86
2022/07/04 00:56:42;;;;;;;69.13;6.17;;;19.10;21.80;;;;;;5106214;28;20409;-86
2022/07/04 00:59:11;;;;;;;68.00;7.87;;;19.00;22.80;;;;;;5088933;28;20394;-85
2022/07/04 01:01:38;;;;;;;68.90;10.37;;;19.00;23.10;;;;;;5089072;28;20921;-86
2022/07/04 01:04:05;;;;;;;72.93;10.30;;;18.90;24.00;;;;;;5106891;28;20389;-85
2022/07/04 01:06:32;;;;;;;70.33;10.67;;;18.90;24.60;;;;;;5088098;28;20441;-85
2022/07/04 01:08:59;;;;;;;73.23;8.67;;;18.80;25.60;;;;;;5088627;28;20415;-86
2022/07/04 01:11:24;;;;;;;69.53;9.70;;;18.80;24.80;;;;;;5088787;28;20406;-85
2022/07/04 01:13:50;;;;;;;70.07;13.23;;;18.80;25.80;;;;;;5106810;28;20904;-85
2022/07/04 01:16:16;;;;;;;69.70;10.00;;;18.80;26.10;;;;;;5105889;28;20165;-86
2022/07/04 01:18:42;;;;;;;69.10;11.90;;;18.70;26.80;;;;;;5105848;28;20195;-85
2022/07/04 01:21:08;;;;;;;69.90;10.70;;;18.70;26.70;;;;;;5087418;28;20407;-86
2022/07/04 01:23:41;;;;;;;69.07;10.97;;;18.70;27.20;;;;;;5088187;28;20826;-85
2022/07/04 01:26:07;;;;;;;69.73;11.60;;;18.60;26.90;;;;;;5105581;28;20466;-85
2022/07/04 01:28:33;;;;;;;69.37;11.37;;;18.70;26.90;;;;;;5087216;28;20477;-85
2022/07/04 01:31:00;;;;;;;72.83;11.37;;;18.60;27.60;;;;;;5105730;28;20405;-86
2022/07/04 01:33:25;;;;;;;69.93;10.10;;;18.50;28.20;;;;;;5104733;28;20436;-85
2022/07/04 01:35:51;;;;;;;71.50;13.10;;;18.50;29.00;;;;;;5105617;28;20889;-85
2022/07/04 01:38:17;;;;;;;71.17;12.70;;;18.50;29.50;;;;;;5104636;28;20187;-85
2022/07/04 01:40:43;;;;;;;69.10;11.10;;;18.50;30.00;;;;;;5109444;28;20254;-85
2022/07/04 01:43:09;;;;;;;68.30;10.50;;;18.40;30.40;;;;;;5109825;28;20171;-85
2022/07/04 01:45:37;;;;;;;68.37;11.23;;;18.40;32.00;;;;;;5109761;28;20398;-85
2022/07/04 01:48:07;;;;;;;70.37;11.20;;;18.30;32.20;;;;;;5092030;28;20210;-85
2022/07/04 01:50:33;;;;;;;70.30;11.40;;;18.30;32.10;;;;;;5091195;28;20768;-86
2022/07/04 01:52:59;;;;;;;70.23;12.20;;;18.30;33.50;;;;;;5090568;28;20405;-86
2022/07/04 01:55:25;;;;;;;68.27;10.90;;;18.20;33.80;;;;;;5109331;28;20470;-86
2022/07/04 01:57:52;;;;;;;69.70;12.30;;;18.20;34.30;;;;;;5108827;28;20424;-86
2022/07/04 02:03:02;;;;;;;67.77;9.37;;;18.20;34.00;;;;;;5108681;28;20384;-86
2022/07/04 02:05:28;;;;;;;69.63;10.40;;;18.20;32.70;;;;;;5108537;28;20401;-86
2022/07/04 02:07:54;;;;;;;67.87;9.33;;;18.10;34.70;;;;;;5090266;28;20252;-85
2022/07/04 02:10:20;;;;;;;68.97;10.10;;;18.10;35.30;;;;;;5108559;28;20216;-86
2022/07/04 02:13:01;;;;;;;70.93;11.07;;;18.00;35.80;;;;;;5090454;28;20405;-85
2022/07/04 02:15:31;;;;;;;67.57;9.00;;;18.00;36.50;;;;;;5090427;28;20405;-85
2022/07/04 02:17:57;;;;;;;71.20;9.53;;;18.00;36.50;;;;;;5108483;28;20433;-86
2022/07/04 02:20:23;;;;;;;68.37;9.73;;;17.90;37.10;;;;;;5090019;28;20413;-86
2022/07/04 02:22:49;;;;;;;69.23;10.03;;;17.90;37.20;;;;;;5092036;28;20412;-85
2022/07/04 02:25:15;;;;;;;68.87;10.77;;;17.90;36.50;;;;;;5091798;28;20488;-86
2022/07/04 02:27:44;;;;;;;68.20;9.87;;;17.90;37.70;;;;;;5163252;22;20484;-91
2022/07/04 02:30:11;;;;;;;68.53;10.43;;;17.90;37.70;;;;;;5096525;28;20152;-89
2022/07/04 02:32:37;;;;;;;69.20;9.80;;;17.90;36.80;;;;;;5078263;28;20759;-89
2022/07/04 02:35:06;;;;;;;68.70;10.53;;;17.90;36.50;;;;;;5096291;28;20398;-89
2022/07/04 02:37:32;;;;;;;69.07;9.43;;;17.80;37.50;;;;;;5078187;28;20878;-89
2022/07/04 02:39:58;;;;;;;67.17;8.27;;;17.70;37.70;;;;;;5077986;28;20421;-89
2022/07/04 02:42:23;;;;;;;68.17;9.03;;;17.70;38.90;;;;;;5077830;28;20163;-89
2022/07/04 02:44:49;;;;;;;69.50;9.20;;;17.60;39.10;;;;;;5096063;28;20394;-89
2022/07/04 02:47:16;;;;;;;67.27;7.93;;;17.60;40.10;;;;;;5095592;28;20195;-89
2022/07/04 02:49:41;;;;;;;70.40;8.47;;;17.60;39.70;;;;;;5077228;28;20163;-89
2022/07/04 02:52:07;;;;;;;69.20;8.93;;;17.60;39.00;;;;;;5077721;28;20428;-89
2022/07/04 02:54:33;;;;;;;72.20;8.60;;;17.60;39.30;;;;;;5077416;28;20250;-89
2022/07/04 02:56:59;;;;;;;68.27;7.37;;;17.60;39.50;;;;;;5095766;28;20479;-89
2022/07/04 02:59:25;;;;;;;70.83;7.23;;;17.60;38.50;;;;;;5077595;28;20224;-89
2022/07/04 03:01:53;;;;;;;68.30;9.17;;;17.60;38.30;;;;;;5077315;28;20167;-89
2022/07/04 03:04:19;;;;;;;68.77;7.53;;;17.50;39.60;;;;;;5077950;28;20175;-89
2022/07/04 03:06:45;;;;;;;75.40;7.73;;;17.50;39.10;;;;;;5077271;28;20457;-89
2022/07/04 03:09:10;;;;;;;71.17;8.97;;;17.50;39.70;;;;;;5077071;28;20159;-89
2022/07/04 03:11:36;;;;;;;73.00;9.13;;;17.50;39.80;;;;;;5095291;28;20163;-89
2022/07/04 03:14:02;;;;;;;70.03;7.37;;;17.40;41.10;;;;;;5095524;28;20163;-89
2022/07/04 03:16:29;;;;;;;69.27;6.27;;;17.40;41.70;;;;;;5076930;28;20167;-89
2022/07/04 03:18:55;;;;;;;67.60;5.93;;;17.30;43.10;;;;;;5095397;28;20438;-89
2022/07/04 03:21:21;;;;;;;68.80;5.40;;;17.30;43.90;;;;;;5076930;28;20500;-89
2022/07/04 03:23:57;;;;;;;68.50;5.40;;;17.30;46.30;;;;;;5095070;28;20409;-89
2022/07/04 03:26:29;;;;;;;68.63;5.30;;;17.20;47.50;;;;;;5077237;28;20194;-89
2022/07/04 03:28:55;;;;;;;68.33;5.20;;;17.20;47.30;;;;;;5076904;28;20936;-89
2022/07/04 03:31:21;;;;;;;66.37;4.80;;;17.20;47.40;;;;;;5076777;28;20502;-89
2022/07/04 03:33:50;;;;;;;66.47;5.10;;;17.20;47.70;;;;;;5076646;28;20492;-89
2022/07/04 03:36:16;;;;;;;66.90;4.73;;;17.20;46.90;;;;;;5076932;28;20397;-89
2022/07/04 03:38:41;;;;;;;66.50;4.77;;;17.10;47.60;;;;;;5076452;28;20574;-89
2022/07/04 03:41:11;;;;;;;65.57;4.80;;;17.10;48.40;;;;;;5094937;28;20730;-89
2022/07/04 03:43:36;;;;;;;66.07;4.83;;;17.10;48.60;;;;;;5076851;28;20533;-89
2022/07/04 03:46:03;;;;;;;65.67;4.50;;;17.20;47.50;;;;;;5094832;28;20397;-89
2022/07/04 03:48:28;;;;;;;67.27;4.70;;;17.20;47.90;;;;;;5094432;28;20422;-89
2022/07/04 03:51:02;;;;;;;67.57;4.70;;;17.10;48.10;;;;;;5076202;28;20505;-89
2022/07/04 03:53:30;;;;;;;72.90;5.30;;;17.20;48.30;;;;;;5094775;28;20565;-89
2022/07/04 03:55:56;;;;;;;66.37;4.87;;;17.10;49.90;;;;;;5076438;28;20725;-89
2022/07/04 03:58:22;;;;;;;66.17;5.17;;;17.20;50.00;;;;;;5094770;28;20423;-89
2022/07/04 04:00:59;;;;;;;68.30;4.77;;;17.10;49.50;;;;;;5094537;28;20167;-89
2022/07/04 04:06:09;;;;;;;70.13;5.50;;;17.10;52.60;;;;;;5094681;28;20735;-89
2022/07/04 04:08:40;;;;;;;66.80;6.30;;;17.10;53.70;;;;;;5075941;28;20437;-89
2022/07/04 04:11:09;;;;;;;68.77;6.47;;;17.10;54.70;;;;;;5094150;28;20146;-89
2022/07/04 04:13:35;;;;;;;67.80;7.70;;;17.00;58.20;;;;;;5094676;28;20915;-89
2022/07/04 04:16:01;;;;;;;69.27;8.00;;;17.00;58.10;;;;;;5076404;28;20440;-89
2022/07/04 04:18:26;;;;;;;70.90;8.57;;;17.10;57.60;;;;;;5094009;28;20222;-89
2022/07/04 04:20:52;;;;;;;68.93;8.03;;;17.10;57.70;;;;;;5075704;28;20437;-89
2022/07/04 04:23:51;;;;;;;67.70;8.07;;;17.10;57.00;;;;;;5094126;28;20526;-89
2022/07/04 04:26:20;;;;;;;72.13;11.60;;;17.10;58.10;;;;;;5075853;28;20179;-89
2022/07/04 04:28:46;;;;;;;69.20;7.20;;;17.10;60.10;;;;;;5094294;28;20452;-89
2022/07/04 04:31:12;;;;;;;68.27;13.10;;;17.10;60.60;;;;;;5076199;28;20409;-89
2022/07/04 04:33:38;;;;;;;71.40;19.40;;;17.00;63.80;;;;;;5094022;28;20163;-89
2022/07/04 04:36:04;;;;;;;77.23;32.50;;;17.00;63.90;;;;;;5076060;28;20405;-89
2022/07/04 04:38:30;;;;;;;72.57;20.20;;;17.10;70.90;;;;;;5075432;28;20866;-89
2022/07/04 04:40:55;;;;;;;69.67;7.67;;;17.50;73.20;;;;;;5075461;28;20431;-89
2022/07/04 04:43:24;;;;;;;66.60;4.60;;;17.90;67.50;;;;;;5075388;28;20405;-89
2022/07/04 04:45:50;;;;;;;67.80;3.93;;;18.40;57.20;;;;;;5075672;28;20216;-89
2022/07/04 04:48:16;;;;;;;71.27;5.80;;;18.90;48.50;;;;;;5075184;28;20461;-89
2022/07/04 04:50:44;;;;;;;71.60;6.20;;;19.20;39.00;;;;;;5075842;28;20401;-89
2022/07/04 04:53:13;;;;;;;68.20;6.70;;;19.50;33.20;;;;;;5075451;28;20167;-89
2022/07/04 04:55:39;;;;;;;69.20;8.20;;;19.80;27.40;;;;;;5075525;28;20410;-89
2022/07/04 04:58:05;;;;;;;69.80;9.23;;;19.90;24.00;;;;;;5093261;28;20432;-89
2022/07/04 05:00:38;;;;;;;70.20;10.23;;;20.00;24.00;;;;;;5093614;28;20904;-89
2022/07/04 05:03:48;;;;;;;72.00;10.53;;;20.00;22.50;;;;;;5075111;28;20494;-89
2022/07/04 05:06:23;;;;;;;69.63;8.60;;;19.90;22.40;;;;;;5081910;28;20420;-90
2022/07/04 05:09:00;;;;;;;73.43;10.70;;;19.90;22.90;;;;;;4994291;28;20449;-90
2022/07/04 05:11:29;;;;;;;69.90;9.63;;;19.90;23.30;;;;;;5093560;28;20382;-89
2022/07/04 05:14:03;;;;;;;75.10;11.23;;;19.70;24.80;;;;;;5096189;28;20402;-89
2022/07/04 05:16:52;;;;;;;;;;;;;;;;;;;;;
2022/07/04 05:19:21;;;;;;;68.43;5.80;;;19.30;29.30;;;;;;5097580;28;20459;-90
2022/07/04 05:21:57;;;;;;;67.63;5.10;;;19.20;31.70;;;;;;5097240;28;20399;-90
2022/07/04 05:24:26;;;;;;;67.17;5.20;;;19.10;34.30;;;;;;5097845;28;20375;-89
2022/07/04 05:27:04;;;;;;;67.47;4.40;;;19.00;39.60;;;;;;5096886;28;20574;-90
2022/07/04 05:29:44;;;;;;;68.87;4.23;;;19.00;41.70;;;;;;5075785;28;20440;-90
2022/07/04 05:32:46;;;;;;;66.90;3.70;;;18.90;43.40;;;;;;5079462;28;20413;-90
2022/07/04 05:35:12;;;;;;;66.47;3.90;;;18.90;43.90;;;;;;5076370;28;20808;-90
2022/07/04 05:37:47;;;;;;;66.30;4.27;;;18.90;44.70;;;;;;5097218;28;20420;-89
2022/07/04 05:40:25;;;;;;;66.83;4.20;;;18.90;45.20;;;;;;5079716;28;20462;-89
2022/07/04 05:42:59;;;;;;;66.37;4.30;;;18.90;45.50;;;;;;5078136;28;20989;-89
2022/07/04 05:48:24;;;;;;;73.90;4.67;;;18.60;49.50;;;;;;5096722;28;20527;-91
2022/07/04 05:51:33;;;;;;;67.80;3.40;;;18.60;49.20;;;;;;5079322;28;20416;-90
2022/07/04 05:57:57;;;;;;;;;;;;;;;;;;;;;
2022/07/04 06:04:14;;;;;;;;;;;;;;;;;;;;;
2022/07/04 06:10:07;;;;;;;68.13;4.10;;;18.40;47.70;;;;;;5006497;28;20412;-90
2022/07/04 06:13:49;;;;;;;67.90;4.30;;;18.40;48.80;;;;;;5073663;28;20913;-90
2022/07/04 06:16:39;;;;;;;70.77;4.10;;;18.40;49.10;;;;;;5092562;28;20488;-89
2022/07/04 06:19:25;;;;;;;66.80;4.20;;;18.40;48.40;;;;;;5077849;28;20511;-90
2022/07/04 06:22:07;;;;;;;66.17;3.80;;;18.40;48.90;;;;;;5064118;28;20406;-90
2022/07/04 06:24:36;;;;;;;66.43;4.20;;;18.40;49.10;;;;;;5078107;28;20398;-89
2022/07/04 06:37:11;;;;;;;66.90;5.33;;;18.40;52.70;;;;;;5096491;28;20389;-90
2022/07/04 06:40:13;;;;;;;;;;;;;;;;;;;;;
2022/07/04 06:43:31;;;;;;;67.63;4.37;;;18.50;50.90;;;;;;5097100;28;20392;-91
2022/07/04 06:47:11;;;;;;;67.33;4.33;;;18.50;47.60;;;;;;5013394;28;20492;-90
2022/07/04 06:50:10;;;;;;;;;;;;;;;;;;;;;
2022/07/04 06:54:06;;;;;;;66.07;4.73;;;18.60;42.50;;;;;;5014910;28;20397;-90
2022/07/04 07:01:15;;;;;;;66.77;4.10;;;18.50;28.90;;;;;;4955466;29;20820;-90
2022/07/04 07:04:33;;;;;;;65.90;4.43;;;18.50;34.10;;;;;;4956312;28;20416;-90
2022/07/04 07:20:34;;;;;;;68.30;4.17;;;18.70;1.90;;;;;;5147441;22;20473;-90
2022/07/04 07:27:26;;;;;;;66.03;2.83;;;18.70;1.00;;;;;;4995031;28;20488;-89
2022/07/04 07:29:52;;;;;;;66.50;2.83;;;18.70;1.00;;;;;;4993533;28;20436;-89
2022/07/04 07:32:55;;;;;;;68.47;3.07;;;18.70;1.00;;;;;;4978955;28;20422;-89
2022/07/04 07:35:26;;;;;;;67.00;3.10;;;18.80;1.00;;;;;;5053553;28;20420;-90
2022/07/04 07:38:01;;;;;;;65.20;2.27;;;18.90;1.00;;;;;;5075559;28;20418;-89
2022/07/04 07:40:39;;;;;;;66.27;2.80;;;18.80;1.00;;;;;;5058706;28;20418;-90
2022/07/04 07:43:07;;;;;;;65.93;3.10;;;18.90;1.00;;;;;;5075454;28;20383;-89
2022/07/04 07:45:32;;;;;;;66.57;3.60;;;18.90;1.00;;;;;;5056973;28;20421;-89
2022/07/04 07:48:33;;;;;;;65.97;2.90;;;19.00;1.00;;;;;;5074864;28;20505;-90
2022/07/04 07:51:23;;;;;;;;;;;;;;;;;;;;;
2022/07/04 07:54:01;;;;;;;65.20;2.27;;;19.00;1.00;;;;;;5077248;28;20385;-89
2022/07/04 07:56:30;;;;;;;66.40;2.50;;;19.00;1.00;;;;;;5057176;28;20406;-88
2022/07/04 07:59:02;;;;;;;65.40;2.23;;;19.00;1.00;;;;;;5060752;28;20413;-90
2022/07/04 08:01:43;;;;;;;68.50;2.60;;;19.00;1.00;;;;;;5079974;28;20376;-90
2022/07/04 08:07:14;;;;;;;65.40;2.43;;;19.20;1.00;;;;;;5076377;28;20531;-88
2022/07/04 08:09:58;;;;;;;66.17;2.63;;;19.20;1.00;;;;;;5075912;28;20444;-90
2022/07/04 08:13:00;;;;;;;;;;;;;;;;;;;;;
2022/07/04 08:16:09;;;;;;;66.30;2.77;;;19.20;1.00;;;;;;5077291;28;20464;-90
2022/07/04 08:18:42;;;;;;;66.07;2.70;;;19.30;1.00;;;;;;5076427;28;20426;-89
2022/07/04 08:21:39;;;;;;;66.47;2.63;;;19.40;1.00;;;;;;5058544;28;20450;-91
2022/07/04 08:24:05;;;;;;;65.57;2.27;;;19.50;1.00;;;;;;5032118;28;20415;-90
2022/07/04 08:26:51;;;;;;;65.87;3.47;;;19.50;1.00;;;;;;5058641;28;20778;-89
2022/07/04 08:29:17;;;;;;;66.33;3.17;;;19.70;1.00;;;;;;5145734;22;20571;-86
2022/07/04 08:31:43;;;;;;;66.00;2.27;;;19.70;1.00;;;;;;5100118;28;20409;-85
2022/07/04 08:34:09;;;;;;;65.50;2.60;;;19.70;1.00;;;;;;5099728;28;20395;-85
2022/07/04 08:36:35;;;;;;;65.43;2.20;;;19.70;1.00;;;;;;5099075;28;20159;-85
2022/07/04 08:39:00;;;;;;;65.90;3.53;;;19.70;1.00;;;;;;5097857;28;20406;-85
2022/07/04 08:41:28;;;;;;;66.17;3.57;;;19.70;1.00;;;;;;5080979;28;20167;-85
2022/07/04 08:43:55;;;;;;;66.17;3.00;;;19.80;1.00;;;;;;5081814;28;20167;-86
2022/07/04 08:46:26;;;;;;;65.97;3.13;;;19.90;1.00;;;;;;5100033;28;20423;-85
2022/07/04 08:48:54;;;;;;;65.90;3.10;;;19.90;1.00;;;;;;5080842;28;20406;-85
2022/07/04 08:51:39;;;;;;;68.70;5.10;;;19.80;1.00;;;;;;5081263;28;20410;-85
2022/07/04 08:58:25;;;;;;;65.70;3.07;;;19.90;1.00;;;;;;5100232;28;20385;-86
2022/07/04 08:59:39;;;;;;;65.87;3.20;;;20.00;1.00;;;;;;5099428;28;20947;-86
2022/07/04 09:02:06;;;;;;;66.77;4.20;;;20.00;1.00;;;;;;5081194;28;20508;-85
2022/07/04 09:04:32;;;;;;;66.00;3.57;;;20.10;1.00;;;;;;5081036;28;20822;-87
2022/07/04 09:06:58;;;;;;;65.20;2.50;;;20.10;1.00;;;;;;5081035;28;20457;-86
2022/07/04 09:09:25;;;;;;;67.40;3.00;;;20.30;1.00;;;;;;5099574;28;20159;-86
2022/07/04 09:11:51;;;;;;;66.50;4.77;;;20.40;1.00;;;;;;5099251;28;20403;-86
2022/07/04 09:14:16;;;;;;;67.13;3.10;;;20.50;1.00;;;;;;5099749;28;20994;-86
2022/07/04 09:16:44;;;;;;;65.70;3.30;;;20.60;1.00;;;;;;5081157;28;20203;-86
2022/07/04 09:19:20;;;;;;;68.37;3.50;;;20.70;1.00;;;;;;5081901;28;20184;-85
2022/07/04 09:21:47;;;;;;;66.50;4.00;;;20.70;1.00;;;;;;5081503;28;20405;-85
2022/07/04 09:24:13;;;;;;;66.10;3.50;;;20.80;1.00;;;;;;5100340;28;20406;-85
2022/07/04 09:26:46;;;;;;;66.40;3.60;;;20.90;1.00;;;;;;5099208;28;20491;-85
2022/07/04 09:29:14;;;;;;;70.97;2.80;;;21.00;1.00;;;;;;5081061;28;20427;-86
2022/07/04 09:31:40;;;;;;;71.10;2.67;;;21.20;1.00;;;;;;5100080;28;20416;-86
2022/07/04 09:34:07;;;;;;;66.60;2.87;;;21.30;1.00;;;;;;5098868;28;20423;-85
2022/07/04 09:36:36;;;;;;;65.60;2.43;;;21.30;1.00;;;;;;5081457;28;20170;-86
2022/07/04 09:39:20;;;;;;;66.23;2.83;;;21.30;1.00;;;;;;5099774;28;20433;-85
2022/07/04 09:42:01;;;;;;;66.13;2.80;;;21.50;1.00;;;;;;5100001;28;20400;-86
2022/07/04 09:44:42;;;;;;;66.40;2.63;;;21.60;1.00;;;;;;5082390;28;20409;-85
2022/07/04 09:47:27;;;;;;;68.40;2.77;;;21.80;1.00;;;;;;5102589;28;20449;-86
2022/07/04 09:50:15;;;;;;;67.83;7.37;;;22.00;1.00;;;;;;5080600;28;20405;-86
2022/07/04 09:52:52;;;;;;;67.47;7.93;;;22.20;1.00;;;;;;5080875;28;20428;-86
2022/07/04 09:55:32;;;;;;;67.60;8.47;;;22.20;1.00;;;;;;5081878;28;20394;-86
2022/07/04 09:58:00;;;;;;;68.20;7.47;;;22.40;1.00;;;;;;5081975;28;20467;-86
2022/07/04 10:00:34;;;;;;;68.40;7.80;;;22.40;1.00;;;;;;5100955;28;20759;-85
2022/07/04 10:03:37;;;;;;;67.30;7.63;;;22.50;1.00;;;;;;5103156;28;20415;-85
2022/07/04 10:06:23;;;;;;;67.50;6.53;;;22.70;1.00;;;;;;5021096;28;20412;-85
2022/07/04 10:08:49;;;;;;;67.37;5.87;;;22.80;1.00;;;;;;5098950;28;20823;-86
2022/07/04 10:11:16;;;;;;;66.40;3.93;;;23.00;1.00;;;;;;5102840;28;20374;-86
2022/07/04 10:13:42;;;;;;;66.97;3.73;;;23.10;1.00;;;;;;5102629;28;20200;-85
2022/07/04 10:16:09;;;;;;;73.33;2.27;;;23.20;1.00;;;;;;5085151;28;20461;-86
2022/07/04 10:18:35;;;;;;;66.90;2.50;;;23.40;1.00;;;;;;5103678;28;20413;-85
2022/07/04 10:21:01;;;;;;;66.10;2.10;;;23.50;1.00;;;;;;5084683;28;20772;-86
2022/07/04 10:23:31;;;;;;;65.70;1.90;;;23.70;1.00;;;;;;5084493;28;20409;-85
2022/07/04 10:25:58;;;;;;;67.37;2.00;;;23.60;1.00;;;;;;5103251;28;20932;-85
2022/07/04 10:28:24;;;;;;;66.27;2.23;;;23.90;1.00;;;;;;5102282;28;20449;-85
2022/07/04 10:30:52;;;;;;;68.27;2.23;;;24.10;1.00;;;;;;5102924;28;20394;-85
2022/07/04 10:33:24;;;;;;;70.50;2.40;;;24.40;1.00;;;;;;5102526;28;20389;-85
2022/07/04 10:35:56;;;;;;;65.97;1.80;;;24.60;1.00;;;;;;5084511;28;20398;-85
2022/07/04 10:38:34;;;;;;;66.50;2.10;;;24.60;1.00;;;;;;5084413;28;20433;-85
2022/07/04 10:41:04;;;;;;;67.90;2.43;;;24.70;1.00;;;;;;5104014;28;20378;-85
2022/07/04 10:43:42;;;;;;;65.90;2.27;;;24.80;1.00;;;;;;5102540;28;20531;-85
2022/07/04 10:46:14;;;;;;;66.97;1.90;;;24.80;1.00;;;;;;5102400;28;20406;-85
2022/07/04 10:48:52;;;;;;;66.40;3.53;;;25.00;1.00;;;;;;5102033;28;20510;-85
2022/07/04 10:51:39;;;;;;;67.30;2.23;;;25.20;1.00;;;;;;5103707;28;20441;-85
2022/07/04 10:54:08;;;;;;;65.87;2.03;;;25.70;1.00;;;;;;5084225;28;20465;-85
2022/07/04 10:56:46;;;;;;;66.70;2.17;;;25.80;1.00;;;;;;5101864;28;20487;-85
2022/07/04 10:59:22;;;;;;;66.60;2.50;;;25.80;1.00;;;;;;5084912;28;20505;-85
2022/07/04 11:01:50;;;;;;;68.43;2.57;;;26.00;1.00;;;;;;5085003;28;20927;-85
2022/07/04 11:04:44;;;;;;;67.23;2.63;;;26.20;1.00;;;;;;5084478;28;20507;-85
2022/07/04 11:07:10;;;;;;;68.30;2.83;;;26.30;1.00;;;;;;5084262;28;20460;-86
2022/07/04 11:09:45;;;;;;;67.53;2.20;;;26.00;1.00;;;;;;5084078;28;20432;-85
2022/07/04 11:12:14;;;;;;;66.00;2.20;;;25.90;1.00;;;;;;5084004;28;20189;-85
2022/07/04 11:14:47;;;;;;;68.47;2.70;;;26.20;1.00;;;;;;5101557;28;20914;-85
2022/07/04 11:17:20;;;;;;;70.10;1.97;;;26.50;1.00;;;;;;5083655;28;20456;-85
2022/07/04 11:19:47;;;;;;;68.20;2.60;;;26.70;1.00;;;;;;5084619;28;20409;-85
2022/07/04 11:22:22;;;;;;;65.90;2.47;;;26.90;1.00;;;;;;5101340;28;20397;-85
2022/07/04 11:24:49;;;;;;;66.67;2.60;;;27.10;1.00;;;;;;5083611;28;20951;-86
2022/07/04 11:27:15;;;;;;;67.50;3.37;;;27.00;1.00;;;;;;5101230;28;20464;-86
2022/07/04 11:29:53;;;;;;;66.93;2.17;;;26.20;1.00;;;;;;5102495;28;20417;-86
2022/07/04 11:32:20;;;;;;;66.87;2.20;;;25.60;1.00;;;;;;5101601;28;20385;-85
2022/07/04 11:34:47;;;;;;;66.20;2.40;;;25.40;1.00;;;;;;5100945;28;20422;-85
2022/07/04 11:37:13;;;;;;;65.50;2.30;;;25.00;1.00;;;;;;5100912;28;20426;-85
2022/07/04 11:39:49;;;;;;;65.20;1.80;;;24.90;1.00;;;;;;5081699;28;20407;-84
2022/07/04 11:45:05;;;;;;;67.50;2.27;;;25.10;1.00;;;;;;5100591;28;20382;-84
2022/07/04 11:47:39;;;;;;;66.40;2.10;;;25.00;1.00;;;;;;5081567;28;20455;-84
2022/07/04 11:50:09;;;;;;;65.53;1.87;;;24.80;1.00;;;;;;5081080;28;20412;-85
2022/07/04 11:52:40;;;;;;;66.77;1.80;;;24.50;1.00;;;;;;5081952;28;20418;-85
2022/07/04 11:55:07;;;;;;;67.50;4.17;;;24.20;1.00;;;;;;5081779;28;20405;-84
2022/07/04 11:57:38;;;;;;;65.97;2.40;;;24.10;1.00;;;;;;5099380;28;20422;-85
2022/07/04 12:00:13;;;;;;;66.80;2.40;;;24.50;1.00;;;;;;5099941;28;20740;-86
2022/07/04 12:02:39;;;;;;;66.27;4.40;;;25.10;1.00;;;;;;5081536;28;20437;-85
2022/07/04 12:05:13;;;;;;;65.67;1.80;;;25.60;1.00;;;;;;5081939;28;20411;-85
2022/07/04 12:07:41;;;;;;;65.90;2.10;;;26.20;1.00;;;;;;5099562;28;20457;-86
2022/07/04 12:10:18;;;;;;;66.27;2.93;;;26.40;1.00;;;;;;5081427;28;20405;-84
2022/07/04 12:12:57;;;;;;;65.57;2.50;;;26.20;1.00;;;;;;5081007;28;20408;-84
2022/07/04 12:15:24;;;;;;;69.43;3.23;;;26.00;1.00;;;;;;5100594;28;20399;-85
2022/07/04 12:17:52;;;;;;;66.40;2.50;;;26.30;1.00;;;;;;5100278;28;20421;-86
2022/07/04 12:20:18;;;;;;;65.80;2.40;;;26.70;1.00;;;;;;5082349;28;20424;-85
2022/07/04 12:22:53;;;;;;;65.77;2.40;;;26.90;1.00;;;;;;5100106;28;20409;-85
2022/07/04 12:25:25;;;;;;;66.80;3.00;;;27.40;1.00;;;;;;5082694;28;20953;-85
2022/07/04 12:27:58;;;;;;;65.97;2.30;;;27.60;1.00;;;;;;5081584;28;20468;-85
2022/07/04 12:30:25;;;;;;;68.63;2.37;;;27.70;1.00;;;;;;5100726;28;20378;-85
2022/07/04 12:32:53;;;;;;;66.50;1.80;;;27.90;1.00;;;;;;5081272;28;20932;-84
2022/07/04 12:35:48;;;;;;;66.37;2.10;;;27.90;1.00;;;;;;5081849;28;20415;-84
2022/07/04 12:38:15;;;;;;;65.60;1.63;;;27.90;1.00;;;;;;5100467;28;20504;-85
2022/07/04 12:40:59;;;;;;;66.03;1.60;;;27.60;1.00;;;;;;5081698;28;20485;-85
2022/07/04 12:43:42;;;;;;;65.97;1.90;;;27.50;1.00;;;;;;5099859;28;20385;-85
2022/07/04 12:46:12;;;;;;;74.83;1.90;;;27.20;1.00;;;;;;5081437;28;20927;-84
2022/07/04 12:48:39;;;;;;;65.67;1.60;;;26.90;1.00;;;;;;5082198;28;20481;-83
2022/07/04 12:51:13;;;;;;;66.20;1.93;;;26.80;1.00;;;;;;5099421;28;20427;-85
2022/07/04 12:53:40;;;;;;;67.43;1.80;;;26.70;1.00;;;;;;5081222;28;20402;-84
2022/07/04 12:56:07;;;;;;;67.70;1.90;;;26.60;1.00;;;;;;5099730;28;20398;-84
2022/07/04 12:58:33;;;;;;;66.97;1.90;;;26.60;1.00;;;;;;5080061;28;20418;-85
2022/07/04 13:00:59;;;;;;;66.60;1.67;;;26.40;1.00;;;;;;5099067;28;20404;-84
2022/07/04 13:03:24;;;;;;;65.57;1.63;;;26.20;1.00;;;;;;5080664;28;20420;-84
2022/07/04 13:05:50;;;;;;;66.80;1.90;;;26.00;1.00;;;;;;5099585;28;20159;-84
2022/07/04 13:08:16;;;;;;;65.50;2.00;;;26.00;1.00;;;;;;5098641;28;20621;-84
2022/07/04 13:10:42;;;;;;;66.37;1.87;;;26.10;1.00;;;;;;5098777;28;20246;-85
2022/07/04 13:13:08;;;;;;;65.67;2.13;;;26.30;1.00;;;;;;5099090;28;20618;-85
2022/07/04 13:15:34;;;;;;;67.57;1.60;;;26.20;1.00;;;;;;5099031;28;20400;-84
2022/07/04 13:18:00;;;;;;;68.00;2.03;;;26.00;1.00;;;;;;5097965;28;20255;-84
2022/07/04 13:20:34;;;;;;;65.47;2.00;;;25.70;1.00;;;;;;5098506;28;20453;-84
2022/07/04 13:23:00;;;;;;;65.77;1.70;;;25.50;1.00;;;;;;5098243;28;20610;-83
2022/07/04 13:25:26;;;;;;;66.30;2.33;;;25.40;1.00;;;;;;5097950;28;20550;-83
2022/07/04 13:27:52;;;;;;;65.67;1.70;;;25.60;1.00;;;;;;5096957;28;20665;-83
2022/07/04 13:30:18;;;;;;;65.97;2.03;;;26.00;1.00;;;;;;5095721;28;20412;-83
2022/07/04 13:32:43;;;;;;;66.70;1.90;;;26.50;1.00;;;;;;5096684;28;20163;-82
2022/07/04 13:35:09;;;;;;;65.57;1.87;;;26.80;1.00;;;;;;5098090;28;20277;-82
2022/07/04 13:37:35;;;;;;;65.57;1.77;;;27.30;1.00;;;;;;5081570;28;20195;-82
2022/07/04 13:40:00;;;;;;;65.87;1.70;;;27.60;1.00;;;;;;5099133;28;20174;-83
2022/07/04 13:45:13;;;;;;;66.03;1.60;;;27.90;1.00;;;;;;5101690;28;20212;-82
2022/07/04 13:47:38;;;;;;;65.83;1.80;;;28.00;1.00;;;;;;5100149;28;20447;-85
2022/07/04 13:50:05;;;;;;;66.47;1.90;;;28.30;1.00;;;;;;5082749;28;20405;-85
2022/07/04 13:52:30;;;;;;;65.77;1.57;;;28.30;1.00;;;;;;5102644;28;20554;-84
2022/07/04 13:54:56;;;;;;;66.37;2.00;;;28.30;1.00;;;;;;5102480;28;20450;-84
2022/07/04 13:57:22;;;;;;;66.23;1.80;;;28.30;1.00;;;;;;5102882;28;20192;-83
2022/07/04 13:59:48;;;;;;;69.20;1.70;;;28.30;1.00;;;;;;5102386;28;20409;-83
2022/07/04 14:02:13;;;;;;;65.60;1.77;;;28.40;1.00;;;;;;5102133;28;20164;-84
2022/07/04 14:04:39;;;;;;;66.10;1.83;;;28.60;1.00;;;;;;5101946;28;20171;-84
2022/07/04 14:07:05;;;;;;;66.23;2.00;;;28.70;1.00;;;;;;5103744;28;20188;-85
2022/07/04 14:09:31;;;;;;;65.77;1.77;;;28.80;1.00;;;;;;5102160;28;20209;-85
2022/07/04 14:11:59;;;;;;;67.80;1.70;;;28.60;1.00;;;;;;5102667;28;20405;-84
2022/07/04 14:14:26;;;;;;;66.80;2.47;;;28.60;1.00;;;;;;5101191;28;20160;-84